createdAt,value
2023-03-30T00:01:32.144Z,59.12
2023-03-30T00:11:37.979Z,59.55
2023-03-30T00:21:41.382Z,59.94
2023-03-30T00:31:45.705Z,60.22
2023-03-30T00:41:48.760Z,60.68
2023-03-30T00:51:53.342Z,61.49
2023-03-30T01:01:56.901Z,61.55
2023-03-30T01:12:01.805Z,61.80
2023-03-30T01:22:27.962Z,61.04
2023-03-30T01:33:01.358Z,60.62
2023-03-30T01:43:13.199Z,59.91
2023-03-30T01:53:19.481Z,59.30
2023-03-30T02:03:28.637Z,59.36
2023-03-30T02:13:33.760Z,59.81
2023-03-30T02:23:42.166Z,61.02
2023-03-30T02:33:49.300Z,62.40
2023-03-30T02:44:04.083Z,63.42
2023-03-30T02:54:18.054Z,64.54
2023-03-30T03:04:51.113Z,64.98
2023-03-30T03:15:03.660Z,66.20
2023-03-30T03:25:12.006Z,68.42
2023-03-30T03:35:30.153Z,70.32
2023-03-30T03:45:37.092Z,71.25
2023-03-30T03:55:41.707Z,71.87
2023-03-30T04:05:46.375Z,72.51
2023-03-30T04:15:49.664Z,72.94
2023-03-30T04:26:08.006Z,73.62
2023-03-30T04:36:43.437Z,74.05
2023-03-30T04:47:11.101Z,73.52
2023-03-30T04:57:40.794Z,73.51
2023-03-30T05:08:05.779Z,72.97
2023-03-30T05:18:26.462Z,73.17
2023-03-30T05:28:32.594Z,73.61
2023-03-30T05:38:50.631Z,73.43
2023-03-30T05:49:15.531Z,72.44
2023-03-30T05:59:39.420Z,71.94
2023-03-30T06:10:04.784Z,72.12
2023-03-30T06:20:12.798Z,71.61
2023-03-30T06:30:22.397Z,71.34
2023-03-30T06:40:29.443Z,70.96
2023-03-30T06:50:36.928Z,70.51
2023-03-30T07:00:49.639Z,71.24
2023-03-30T07:11:17.001Z,72.24
2023-03-30T07:21:20.773Z,71.80
2023-03-30T07:31:26.374Z,71.28
2023-03-30T07:41:30.082Z,68.45
2023-03-30T07:51:37.049Z,67.71
2023-03-30T08:01:50.501Z,66.32
2023-03-30T08:12:16.084Z,63.50
2023-03-30T08:22:19.329Z,63.20
2023-03-30T08:32:24.587Z,62.08
2023-03-30T08:42:43.700Z,62.18
2023-03-30T08:52:48.628Z,61.14
2023-03-30T09:02:56.839Z,59.32
2023-03-30T09:13:04.017Z,59.82
2023-03-30T09:23:12.486Z,59.12
2023-03-30T09:33:28.037Z,58.71
2023-03-30T09:43:35.177Z,58.66
2023-03-30T09:53:42.355Z,60.10
2023-03-30T10:03:47.733Z,65.75
2023-03-30T10:13:52.506Z,85.75
2023-03-30T10:24:08.900Z,87.08
2023-03-30T10:34:19.324Z,86.64
2023-03-30T10:44:26.175Z,86.10
2023-03-30T10:54:38.052Z,84.13
2023-03-30T11:04:44.439Z,82.28
2023-03-30T11:14:54.035Z,79.23
2023-03-30T11:24:58.171Z,75.00
2023-03-30T11:35:10.762Z,77.34
2023-03-30T11:45:43.576Z,80.01
2023-03-30T11:56:03.225Z,76.22
2023-03-30T12:06:21.835Z,72.01
2023-03-30T12:16:30.381Z,69.53
2023-03-30T12:26:35.276Z,67.21
2023-03-30T12:36:41.595Z,62.33
2023-03-30T12:46:58.517Z,64.71
2023-03-30T12:57:13.225Z,59.28
2023-03-30T13:07:22.839Z,57.89
2023-03-30T13:17:28.069Z,58.22
2023-03-30T13:27:34.613Z,57.78
2023-03-30T13:37:56.076Z,58.39
2023-03-30T13:48:10.655Z,59.82
2023-03-30T13:58:18.952Z,61.05
2023-03-30T14:08:22.398Z,72.44
2023-03-30T14:18:27.733Z,70.52
2023-03-30T14:28:35.177Z,64.15
2023-03-30T14:38:42.150Z,59.64
2023-03-30T14:48:50.648Z,55.56
2023-03-30T14:58:56.956Z,54.18
2023-03-30T15:09:04.774Z,54.52
2023-03-30T15:19:13.246Z,54.72
2023-03-30T15:29:19.311Z,55.01
2023-03-30T15:39:25.683Z,62.65
2023-03-30T15:49:37.252Z,63.87
2023-03-30T15:59:47.079Z,63.11
2023-03-30T16:09:50.046Z,55.49
2023-03-30T16:19:54.731Z,56.24
2023-03-30T16:29:58.576Z,57.30
2023-03-30T16:40:04.445Z,56.48
2023-03-30T16:50:19.629Z,57.08
2023-03-30T17:00:27.275Z,56.71
2023-03-30T17:10:56.040Z,55.97
2023-03-30T17:21:03.040Z,57.25
2023-03-30T17:31:11.142Z,58.02
2023-03-30T17:41:19.621Z,59.98
2023-03-30T17:51:23.005Z,61.80
2023-03-30T18:01:27.692Z,61.33
2023-03-30T18:11:30.984Z,62.41
2023-03-30T18:21:35.987Z,64.15
2023-03-30T18:31:40.369Z,65.15
2023-03-30T18:41:44.927Z,65.76
2023-03-30T18:51:48.051Z,66.56
2023-03-30T19:01:52.580Z,67.07
2023-03-30T19:11:57.275Z,69.13
2023-03-30T19:22:01.792Z,71.04
2023-03-30T19:32:05.645Z,70.51
2023-03-30T19:42:10.088Z,70.09
2023-03-30T19:52:13.110Z,69.94
2023-03-30T20:02:17.869Z,69.34
2023-03-30T20:12:21.403Z,69.99
2023-03-30T20:22:25.910Z,70.48
2023-03-30T20:32:29.039Z,70.70
2023-03-30T20:42:33.243Z,71.81
2023-03-30T20:52:36.046Z,71.62
2023-03-30T21:02:40.548Z,72.22
2023-03-30T21:12:43.621Z,72.79
2023-03-30T21:22:48.418Z,72.71
2023-03-30T21:32:51.671Z,73.00
2023-03-30T21:42:55.992Z,74.04
2023-03-30T21:52:59.544Z,76.66
2023-03-30T22:03:04.000Z,76.06
2023-03-30T22:13:07.420Z,75.61
2023-03-30T22:23:11.696Z,74.85
2023-03-30T22:33:15.895Z,75.18
2023-03-30T22:55:27.849Z,75.36
2023-03-30T23:05:33.623Z,75.23
2023-03-30T23:15:56.918Z,75.72
2023-03-30T23:26:03.030Z,75.15
2023-03-30T23:36:09.253Z,76.07
2023-03-30T23:46:13.357Z,81.95
2023-03-30T23:56:18.110Z,85.38
